createdAt,value
2022-12-09T00:00:36.671Z,10.43
2022-12-09T00:05:41.230Z,8.25
2022-12-09T00:10:45.016Z,8.48
2022-12-09T00:15:46.937Z,7.93
2022-12-09T00:20:48.706Z,7.70
2022-12-09T00:25:50.744Z,8.30
2022-12-09T00:30:52.436Z,8.23
2022-12-09T00:35:54.162Z,8.95
2022-12-09T00:40:55.873Z,8.68
2022-12-09T00:45:57.752Z,8.20
2022-12-09T00:50:59.679Z,10.10
2022-12-09T00:56:01.859Z,9.25
2022-12-09T01:01:04.160Z,8.95
2022-12-09T01:06:17.228Z,9.90
2022-12-09T01:11:29.422Z,12.30
2022-12-09T01:16:33.930Z,9.23
2022-12-09T01:21:36.026Z,8.80
2022-12-09T01:26:40.850Z,9.25
2022-12-09T01:31:42.818Z,9.40
2022-12-09T01:36:44.752Z,9.73
2022-12-09T01:41:46.552Z,10.10
2022-12-09T01:46:49.787Z,9.20
2022-12-09T01:52:24.316Z,8.73
2022-12-09T01:57:26.502Z,8.98
2022-12-09T02:02:30.751Z,9.80
2022-12-09T02:07:33.475Z,9.63
2022-12-09T02:12:57.091Z,8.73
2022-12-09T02:18:07.739Z,9.88
2022-12-09T02:23:22.991Z,11.23
2022-12-09T02:28:59.318Z,11.27
2022-12-09T02:34:23.217Z,9.98
2022-12-09T02:39:38.148Z,8.88
2022-12-09T02:44:43.934Z,9.75
2022-12-09T02:49:54.881Z,10.50
2022-12-09T02:54:58.523Z,10.65
2022-12-09T03:00:00.683Z,10.75
2022-12-09T03:05:27.359Z,10.98
2022-12-09T03:10:49.535Z,11.40
2022-12-09T03:15:59.538Z,11.18
2022-12-09T03:21:03.888Z,10.32
2022-12-09T03:26:07.395Z,9.55
2022-12-09T03:31:14.862Z,10.32
2022-12-09T03:36:18.454Z,10.80
2022-12-09T03:41:32.068Z,11.85
2022-12-09T03:46:34.016Z,10.75
2022-12-09T03:51:41.224Z,10.23
2022-12-09T03:56:48.161Z,11.27
2022-12-09T04:01:51.210Z,10.10
2022-12-09T04:06:54.619Z,10.32
2022-12-09T04:11:56.307Z,9.95
2022-12-09T04:16:58.192Z,10.13
2022-12-09T04:22:00.124Z,10.77
2022-12-09T04:27:02.281Z,10.35
2022-12-09T04:32:04.474Z,9.32
2022-12-09T04:37:06.466Z,10.50
2022-12-09T04:42:08.738Z,9.00
2022-12-09T04:47:10.622Z,10.13
2022-12-09T04:52:12.558Z,8.48
2022-12-09T04:57:14.438Z,9.52
2022-12-09T05:02:16.361Z,10.05
2022-12-09T05:07:18.676Z,10.20
2022-12-09T05:12:20.549Z,9.82
2022-12-09T05:17:22.730Z,10.98
2022-12-09T05:22:24.593Z,11.80
2022-12-09T05:27:26.581Z,11.30
2022-12-09T05:32:30.807Z,11.68
2022-12-09T05:37:32.843Z,11.75
2022-12-09T05:42:40.905Z,11.38
2022-12-09T05:47:43.344Z,11.85
2022-12-09T05:52:45.565Z,12.00
2022-12-09T05:57:47.666Z,12.30
2022-12-09T06:02:49.568Z,13.10
2022-12-09T06:07:51.573Z,13.82
2022-12-09T06:12:55.439Z,14.07
2022-12-09T06:17:57.323Z,12.65
2022-12-09T06:22:59.513Z,13.52
2022-12-09T06:28:01.466Z,13.60
2022-12-09T06:33:17.275Z,13.93
2022-12-09T06:38:25.001Z,13.33
2022-12-09T06:43:27.068Z,13.63
2022-12-09T06:48:29.312Z,13.43
2022-12-09T06:53:31.741Z,13.68
2022-12-09T06:58:33.873Z,13.07
2022-12-09T07:03:35.633Z,14.50
2022-12-09T07:08:37.758Z,14.25
2022-12-09T07:13:39.928Z,14.32
2022-12-09T07:18:42.167Z,13.55
2022-12-09T07:23:44.766Z,13.55
2022-12-09T07:28:48.837Z,13.20
2022-12-09T07:33:51.741Z,13.23
2022-12-09T07:39:21.764Z,14.70
2022-12-09T07:44:25.350Z,14.38
2022-12-09T07:49:27.436Z,13.95
2022-12-09T07:54:29.617Z,13.05
2022-12-09T07:59:31.779Z,11.98
2022-12-09T08:04:35.513Z,13.07
2022-12-09T08:09:37.774Z,14.25
2022-12-09T08:14:39.778Z,12.13
2022-12-09T08:19:42.125Z,12.73
2022-12-09T08:24:44.176Z,13.05
2022-12-09T08:29:46.134Z,29.60
2022-12-09T08:34:48.189Z,14.32
2022-12-09T08:39:50.245Z,13.45
2022-12-09T08:44:57.111Z,14.88
2022-12-09T08:50:04.139Z,14.18
2022-12-09T08:55:06.963Z,14.80
2022-12-09T09:00:09.534Z,19.05
2022-12-09T09:05:12.435Z,17.67
2022-12-09T09:10:14.665Z,13.20
2022-12-09T09:15:17.567Z,15.05
2022-12-09T09:20:20.086Z,14.40
2022-12-09T09:25:21.931Z,16.35
2022-12-09T09:30:23.780Z,17.88
2022-12-09T09:35:26.020Z,17.13
2022-12-09T09:40:29.615Z,18.90
2022-12-09T09:45:31.414Z,20.33
2022-12-09T09:50:44.596Z,20.38
2022-12-09T09:55:53.373Z,20.60
2022-12-09T10:01:12.219Z,17.95
2022-12-09T10:06:50.070Z,18.55
2022-12-09T10:12:05.749Z,18.67
2022-12-09T10:17:20.502Z,16.08
2022-12-09T10:22:29.732Z,19.77
2022-12-09T10:27:44.667Z,13.80
2022-12-09T10:32:47.598Z,14.38
2022-12-09T10:37:54.272Z,15.88
2022-12-09T10:43:21.504Z,13.82
2022-12-09T10:48:34.413Z,13.35
2022-12-09T10:53:36.891Z,13.65
2022-12-09T10:58:38.757Z,14.32
2022-12-09T11:03:46.774Z,14.35
2022-12-09T11:08:56.606Z,15.27
2022-12-09T11:13:58.956Z,15.13
2022-12-09T11:19:00.938Z,15.15
2022-12-09T11:24:04.872Z,15.77
2022-12-09T11:29:17.255Z,14.10
2022-12-09T11:34:27.417Z,14.73
2022-12-09T11:39:33.452Z,15.02
2022-12-09T11:44:36.177Z,14.05
2022-12-09T11:50:13.051Z,12.40
2022-12-09T11:55:23.005Z,12.73
2022-12-09T12:00:30.625Z,14.07
2022-12-09T12:05:39.304Z,14.05
2022-12-09T12:10:51.772Z,14.38
2022-12-09T12:16:14.340Z,14.70
2022-12-09T12:21:22.376Z,12.93
2022-12-09T12:26:28.837Z,13.57
2022-12-09T12:32:04.765Z,13.93
2022-12-09T12:37:39.528Z,14.50
2022-12-09T12:43:08.246Z,14.32
2022-12-09T12:48:20.456Z,14.25
2022-12-09T12:53:57.263Z,15.30
2022-12-09T12:59:12.644Z,15.55
2022-12-09T13:04:24.714Z,17.35
2022-12-09T13:09:41.688Z,17.23
2022-12-09T13:14:55.529Z,17.17
2022-12-09T13:20:01.994Z,17.35
2022-12-09T13:25:17.963Z,17.77
2022-12-09T13:30:30.671Z,17.83
2022-12-09T13:35:41.307Z,17.63
2022-12-09T13:40:43.120Z,16.75
2022-12-09T13:45:44.816Z,19.67
2022-12-09T13:50:49.261Z,17.92
2022-12-09T13:55:53.653Z,15.88
2022-12-09T14:01:04.905Z,18.83
2022-12-09T14:06:27.764Z,17.60
2022-12-09T14:11:38.373Z,17.60
2022-12-09T14:16:40.048Z,16.80
2022-12-09T14:21:41.705Z,16.15
2022-12-09T14:26:47.840Z,17.63
2022-12-09T14:31:58.574Z,19.40
2022-12-09T14:37:27.044Z,17.48
2022-12-09T14:42:42.804Z,17.13
2022-12-09T14:47:48.053Z,16.13
2022-12-09T14:53:02.859Z,17.38
2022-12-09T14:58:05.006Z,18.25
2022-12-09T15:03:33.214Z,18.88
2022-12-09T15:08:39.442Z,20.48
2022-12-09T15:13:43.986Z,21.25
2022-12-09T15:18:46.480Z,21.42
2022-12-09T15:23:48.376Z,22.67
2022-12-09T15:28:52.123Z,22.95
2022-12-09T15:33:56.737Z,25.48
2022-12-09T15:39:27.393Z,22.30
2022-12-09T15:44:43.927Z,22.65
2022-12-09T15:50:04.253Z,24.52
2022-12-09T15:55:11.186Z,21.35
2022-12-09T16:00:13.952Z,21.80
2022-12-09T16:05:22.639Z,20.97
2022-12-09T16:10:26.938Z,23.90
2022-12-09T16:15:50.929Z,22.70
2022-12-09T16:21:12.693Z,20.70
2022-12-09T16:26:36.237Z,20.60
2022-12-09T16:31:38.269Z,22.95
2022-12-09T16:36:53.406Z,21.90
2022-12-09T16:41:58.820Z,23.08
2022-12-09T16:47:13.202Z,23.13
2022-12-09T16:52:18.150Z,21.33
2022-12-09T16:57:20.837Z,21.52
2022-12-09T17:02:33.133Z,21.45
2022-12-09T17:07:34.922Z,21.90
2022-12-09T17:12:36.668Z,21.25
2022-12-09T17:17:38.453Z,23.05
2022-12-09T17:22:40.376Z,21.83
2022-12-09T17:27:42.032Z,22.55
2022-12-09T17:32:43.702Z,22.55
2022-12-09T17:37:45.411Z,22.38
2022-12-09T17:42:47.069Z,22.67
2022-12-09T17:47:49.975Z,22.30
2022-12-09T17:52:51.644Z,22.05
2022-12-09T17:57:54.392Z,22.23
2022-12-09T18:02:56.184Z,22.55
2022-12-09T18:07:57.858Z,22.00
2022-12-09T18:12:59.722Z,19.20
2022-12-09T18:18:01.419Z,19.00
2022-12-09T18:23:03.090Z,20.63
2022-12-09T18:28:05.730Z,19.08
2022-12-09T18:33:07.484Z,19.67
2022-12-09T18:38:12.622Z,19.75
2022-12-09T18:43:14.684Z,19.25
2022-12-09T18:48:16.365Z,18.27
2022-12-09T18:53:18.064Z,17.35
2022-12-09T18:58:36.524Z,18.98
2022-12-09T19:03:42.194Z,19.02
2022-12-09T19:08:43.863Z,18.77
2022-12-09T19:13:45.513Z,17.77
2022-12-09T19:18:47.759Z,19.50
2022-12-09T19:23:49.483Z,18.15
2022-12-09T19:28:53.708Z,18.25
2022-12-09T19:34:01.130Z,18.07
2022-12-09T19:39:08.312Z,20.48
2022-12-09T19:44:15.316Z,20.37
2022-12-09T19:49:21.180Z,19.77
2022-12-09T19:54:28.288Z,21.00
2022-12-09T19:59:30.404Z,19.92
2022-12-09T20:04:48.730Z,20.15
2022-12-09T20:09:51.149Z,18.58
2022-12-09T20:14:52.796Z,18.13
2022-12-09T20:19:54.495Z,17.58
2022-12-09T20:24:56.193Z,18.80
2022-12-09T20:29:57.858Z,18.80
2022-12-09T20:35:05.242Z,17.70
2022-12-09T20:40:10.973Z,18.98
2022-12-09T20:45:12.632Z,18.58
2022-12-09T20:50:14.312Z,19.08
2022-12-09T20:55:16.175Z,19.75
2022-12-09T21:00:18.015Z,18.37
2022-12-09T21:05:19.703Z,19.73
2022-12-09T21:10:21.485Z,19.73
2022-12-09T21:15:24.386Z,19.83
2022-12-09T21:20:26.155Z,21.80
2022-12-09T21:25:27.873Z,20.90
2022-12-09T21:30:29.685Z,23.25
2022-12-09T21:35:32.026Z,23.40
2022-12-09T21:40:34.195Z,23.30
2022-12-09T21:45:35.965Z,21.75
2022-12-09T21:50:37.770Z,22.50
2022-12-09T21:55:39.552Z,23.98
2022-12-09T22:00:41.364Z,24.15
2022-12-09T22:05:43.220Z,26.50
2022-12-09T22:10:45.215Z,26.88
2022-12-09T22:15:46.904Z,28.42
2022-12-09T22:21:22.953Z,29.40
2022-12-09T22:26:13.680Z,27.50
2022-12-09T22:31:21.503Z,28.65
2022-12-09T22:36:23.486Z,28.30
2022-12-09T22:41:27.756Z,29.52
2022-12-09T22:46:32.338Z,29.70
2022-12-09T22:51:36.594Z,29.08
2022-12-09T22:56:41.189Z,29.90
2022-12-09T23:01:45.995Z,29.25
2022-12-09T23:06:48.511Z,30.88
2022-12-09T23:11:52.657Z,30.83
2022-12-09T23:16:54.358Z,32.45
2022-12-09T23:21:56.033Z,31.38
2022-12-09T23:26:57.737Z,32.25
2022-12-09T23:31:59.413Z,32.15
2022-12-09T23:37:01.086Z,33.05
2022-12-09T23:42:02.778Z,31.47
2022-12-09T23:47:04.630Z,33.75
2022-12-09T23:52:06.370Z,32.10
2022-12-09T23:57:08.077Z,32.35
